createdAt,value
2018-06-27T00:00:35.373Z,17.63
2018-06-27T00:03:38.540Z,21.33
2018-06-27T00:06:41.709Z,25.60
2018-06-27T00:09:44.848Z,20.93
2018-06-27T00:12:47.995Z,24.27
2018-06-27T00:15:50.895Z,15.30
2018-06-27T00:18:54.051Z,20.10
2018-06-27T00:21:57.192Z,19.60
2018-06-27T00:25:00.651Z,20.47
2018-06-27T00:28:03.807Z,20.57
2018-06-27T00:31:06.939Z,19.50
2018-06-27T00:34:10.091Z,21.47
2018-06-27T00:37:13.246Z,16.27
2018-06-27T00:40:16.383Z,17.10
2018-06-27T00:43:19.522Z,19.53
2018-06-27T00:46:22.668Z,18.53
2018-06-27T00:49:25.820Z,16.93
2018-06-27T00:52:28.971Z,21.63
2018-06-27T00:55:32.133Z,19.83
2018-06-27T00:58:35.286Z,21.20
2018-06-27T01:01:39.027Z,28.97
2018-06-27T01:04:42.182Z,19.77
2018-06-27T01:07:45.348Z,21.70
2018-06-27T01:10:48.500Z,20.27
2018-06-27T01:13:51.673Z,22.03
2018-06-27T01:16:54.823Z,21.87
2018-06-27T01:19:58.045Z,24.97
2018-06-27T01:23:01.135Z,24.33
2018-06-27T01:26:04.286Z,18.30
2018-06-27T01:29:07.443Z,18.87
2018-06-27T01:32:10.598Z,25.77
2018-06-27T01:35:14.150Z,25.83
2018-06-27T01:38:17.315Z,20.10
2018-06-27T01:41:20.502Z,28.47
2018-06-27T01:44:23.661Z,24.37
2018-06-27T01:47:27.114Z,21.37
2018-06-27T01:50:30.292Z,24.37
2018-06-27T01:53:33.452Z,31.27
2018-06-27T01:56:36.612Z,19.53
2018-06-27T01:59:39.777Z,23.60
2018-06-27T02:02:42.923Z,22.77
2018-06-27T02:05:46.083Z,26.70
2018-06-27T02:08:49.247Z,22.60
2018-06-27T02:11:52.390Z,24.90
2018-06-27T02:14:55.632Z,29.07
2018-06-27T02:17:58.772Z,21.67
2018-06-27T02:21:01.936Z,26.43
2018-06-27T02:24:05.079Z,30.20
2018-06-27T02:27:08.235Z,27.27
2018-06-27T02:30:11.383Z,32.10
2018-06-27T02:33:19.959Z,29.63
2018-06-27T02:36:23.119Z,31.37
2018-06-27T02:39:26.267Z,28.33
2018-06-27T02:42:29.440Z,24.47
2018-06-27T02:45:32.589Z,24.83
2018-06-27T02:48:35.741Z,25.70
2018-06-27T02:51:38.907Z,25.87
2018-06-27T02:54:42.040Z,34.17
2018-06-27T02:57:45.164Z,23.40
2018-06-27T03:00:48.288Z,27.77
2018-06-27T03:03:51.420Z,31.70
2018-06-27T03:06:54.616Z,34.37
2018-06-27T03:09:57.747Z,34.67
2018-06-27T03:13:00.900Z,24.90
2018-06-27T03:16:04.007Z,27.97
2018-06-27T03:19:07.132Z,25.10
2018-06-27T03:22:10.690Z,28.23
2018-06-27T03:25:13.802Z,23.07
2018-06-27T03:28:16.952Z,30.50
2018-06-27T03:31:20.070Z,30.53
2018-06-27T03:34:23.257Z,30.47
2018-06-27T03:37:26.490Z,25.93
2018-06-27T03:40:29.619Z,28.90
2018-06-27T03:43:32.743Z,28.40
2018-06-27T03:46:35.972Z,23.37
2018-06-27T03:49:39.088Z,22.60
2018-06-27T03:52:47.480Z,21.73
2018-06-27T03:55:50.609Z,27.97
2018-06-27T03:58:53.782Z,30.43
2018-06-27T04:01:56.988Z,23.33
2018-06-27T04:05:00.128Z,21.70
2018-06-27T04:08:03.255Z,32.50
2018-06-27T04:11:06.644Z,24.40
2018-06-27T04:14:09.794Z,28.00
2018-06-27T04:17:12.697Z,19.80
2018-06-27T04:20:17.198Z,23.60
2018-06-27T04:23:20.193Z,22.53
2018-06-27T04:26:23.304Z,21.70
2018-06-27T04:29:27.339Z,26.67
2018-06-27T04:32:30.493Z,19.97
2018-06-27T04:35:33.602Z,19.97
2018-06-27T04:38:36.727Z,16.37
2018-06-27T04:41:40.395Z,15.90
2018-06-27T04:44:43.542Z,22.47
2018-06-27T04:47:46.755Z,17.07
2018-06-27T04:50:49.883Z,17.80
2018-06-27T04:53:53.069Z,16.27
2018-06-27T04:56:56.256Z,17.43
2018-06-27T04:59:59.434Z,15.60
2018-06-27T05:03:02.580Z,16.07
2018-06-27T05:06:05.883Z,16.77
2018-06-27T05:09:10.024Z,17.10
2018-06-27T05:12:13.166Z,17.67
2018-06-27T05:15:17.287Z,13.60
2018-06-27T05:18:20.467Z,17.03
2018-06-27T05:21:23.588Z,20.50
2018-06-27T05:24:26.757Z,20.53
2018-06-27T05:27:30.069Z,13.63
2018-06-27T05:30:33.198Z,16.80
2018-06-27T05:33:36.357Z,18.93
2018-06-27T05:36:39.514Z,15.60
2018-06-27T05:39:42.654Z,16.90
2018-06-27T05:42:45.819Z,20.13
2018-06-27T05:45:49.304Z,22.83
2018-06-27T05:48:54.012Z,11.77
2018-06-27T05:51:57.367Z,17.97
2018-06-27T05:55:05.998Z,21.87
2018-06-27T05:58:09.221Z,18.67
2018-06-27T06:01:12.290Z,15.57
2018-06-27T06:04:15.472Z,25.57
2018-06-27T06:07:18.550Z,20.37
2018-06-27T06:10:21.686Z,25.40
2018-06-27T06:13:24.812Z,28.90
2018-06-27T06:16:27.936Z,20.10
2018-06-27T06:19:31.046Z,20.37
2018-06-27T06:22:34.166Z,14.93
2018-06-27T06:25:37.324Z,24.73
2018-06-27T06:28:40.459Z,20.60
2018-06-27T06:31:43.578Z,35.00
2018-06-27T06:34:46.698Z,22.93
2018-06-27T06:37:49.842Z,22.23
2018-06-27T06:40:52.967Z,23.80
2018-06-27T06:43:56.090Z,20.27
2018-06-27T06:46:59.239Z,25.67
2018-06-27T06:50:02.997Z,22.37
2018-06-27T06:53:06.115Z,20.07
2018-06-27T06:56:09.300Z,14.10
2018-06-27T06:59:12.591Z,22.67
2018-06-27T07:02:15.763Z,20.87
2018-06-27T07:05:18.931Z,23.17
2018-06-27T07:08:22.095Z,24.97
2018-06-27T07:11:25.299Z,16.70
2018-06-27T07:14:28.482Z,18.87
2018-06-27T07:17:32.315Z,18.17
2018-06-27T07:20:35.463Z,16.87
2018-06-27T07:23:38.619Z,17.63
2018-06-27T07:26:41.775Z,18.63
2018-06-27T07:29:44.943Z,18.33
2018-06-27T07:32:48.249Z,17.70
2018-06-27T07:35:51.937Z,18.13
2018-06-27T07:38:54.892Z,17.03
2018-06-27T07:41:58.031Z,19.53
2018-06-27T07:45:01.186Z,15.50
2018-06-27T07:48:04.352Z,21.07
2018-06-27T07:51:07.530Z,20.23
2018-06-27T07:54:11.082Z,21.47
2018-06-27T07:57:14.440Z,20.30
2018-06-27T08:00:17.628Z,19.90
2018-06-27T08:03:20.751Z,17.60
2018-06-27T08:06:23.867Z,20.67
2018-06-27T08:09:27.008Z,17.57
2018-06-27T08:12:30.682Z,16.13
2018-06-27T08:15:33.772Z,17.47
2018-06-27T08:18:39.058Z,14.53
2018-06-27T08:21:42.179Z,15.30
2018-06-27T08:24:45.320Z,18.27
2018-06-27T08:27:48.452Z,17.93
2018-06-27T08:30:51.591Z,16.97
2018-06-27T08:33:54.764Z,14.43
2018-06-27T08:36:57.899Z,12.37
2018-06-27T08:40:01.024Z,14.70
2018-06-27T08:43:04.143Z,14.37
2018-06-27T08:46:07.263Z,15.10
2018-06-27T08:49:10.420Z,17.27
2018-06-27T08:52:13.537Z,17.47
2018-06-27T08:55:16.716Z,16.53
2018-06-27T08:58:19.851Z,17.80
2018-06-27T09:01:23.020Z,17.73
2018-06-27T09:04:26.176Z,18.07
2018-06-27T09:07:29.331Z,15.57
2018-06-27T09:10:32.494Z,15.17
2018-06-27T09:13:36.318Z,15.77
2018-06-27T09:16:39.497Z,13.40
2018-06-27T09:19:42.665Z,19.87
2018-06-27T09:22:46.092Z,17.03
2018-06-27T09:25:49.252Z,16.13
2018-06-27T09:28:52.426Z,14.40
2018-06-27T09:31:55.604Z,15.37
2018-06-27T09:34:59.260Z,13.13
2018-06-27T09:38:02.416Z,15.40
2018-06-27T09:41:05.600Z,14.03
2018-06-27T09:44:08.509Z,15.03
2018-06-27T09:47:13.152Z,16.27
2018-06-27T09:50:16.285Z,16.20
2018-06-27T09:53:19.439Z,15.27
2018-06-27T09:56:23.076Z,19.90
2018-06-27T09:59:26.208Z,20.60
2018-06-27T10:02:29.414Z,16.77
2018-06-27T10:05:32.631Z,17.53
2018-06-27T10:08:35.770Z,14.70
2018-06-27T10:11:39.050Z,14.27
2018-06-27T10:14:42.157Z,16.37
2018-06-27T10:17:45.300Z,22.33
2018-06-27T10:20:48.540Z,18.17
2018-06-27T10:23:51.648Z,21.27
2018-06-27T10:26:54.771Z,22.67
2018-06-27T10:29:58.424Z,17.53
2018-06-27T10:33:01.560Z,17.47
2018-06-27T10:36:04.687Z,11.13
2018-06-27T10:39:09.343Z,17.30
2018-06-27T10:42:12.600Z,18.93
2018-06-27T10:45:15.748Z,15.00
2018-06-27T10:48:18.866Z,15.97
2018-06-27T10:51:21.999Z,19.40
2018-06-27T10:54:25.136Z,21.20
2018-06-27T10:57:28.264Z,15.03
2018-06-27T11:00:31.396Z,17.97
2018-06-27T11:03:34.555Z,9.33
2018-06-27T11:06:37.812Z,12.73
2018-06-27T11:09:40.940Z,13.90
2018-06-27T11:12:44.202Z,13.83
2018-06-27T11:15:47.584Z,16.10
2018-06-27T11:18:50.708Z,18.43
2018-06-27T11:21:53.845Z,13.13
2018-06-27T11:24:56.989Z,17.83
2018-06-27T11:28:00.128Z,16.13
2018-06-27T11:31:03.258Z,14.90
2018-06-27T11:34:06.379Z,11.97
2018-06-27T11:37:09.495Z,12.60
2018-06-27T11:40:12.674Z,10.87
2018-06-27T11:43:16.134Z,11.40
2018-06-27T11:46:19.305Z,10.27
2018-06-27T11:49:22.438Z,12.03
2018-06-27T11:52:25.550Z,11.40
2018-06-27T11:55:28.720Z,9.83
2018-06-27T11:58:31.919Z,10.47
2018-06-27T12:01:35.084Z,10.77
2018-06-27T12:04:38.292Z,8.00
2018-06-27T12:07:41.487Z,12.00
2018-06-27T12:10:44.645Z,12.20
2018-06-27T12:13:48.503Z,10.27
2018-06-27T12:16:51.709Z,13.97
2018-06-27T12:19:54.828Z,13.17
2018-06-27T12:22:57.993Z,11.77
2018-06-27T12:26:01.144Z,4.70
2018-06-27T12:29:04.316Z,8.90
2018-06-27T12:32:07.483Z,11.97
2018-06-27T12:35:10.671Z,8.00
2018-06-27T12:38:13.832Z,10.57
2018-06-27T12:41:17.200Z,7.03
2018-06-27T12:44:20.370Z,9.07
2018-06-27T12:47:23.510Z,6.53
2018-06-27T12:50:26.680Z,8.30
2018-06-27T12:53:29.816Z,8.37
2018-06-27T12:56:32.952Z,8.37
2018-06-27T12:59:36.206Z,6.50
2018-06-27T13:02:39.352Z,9.07
2018-06-27T13:05:42.543Z,4.40
2018-06-27T13:08:45.737Z,10.13
2018-06-27T13:11:48.811Z,6.03
2018-06-27T13:14:52.327Z,6.00
2018-06-27T13:17:55.688Z,9.47
2018-06-27T13:20:59.564Z,6.30
2018-06-27T13:24:02.757Z,8.03
2018-06-27T13:27:06.089Z,12.13
2018-06-27T13:30:09.271Z,8.47
2018-06-27T13:33:12.446Z,6.23
2018-06-27T13:36:15.564Z,6.47
2018-06-27T13:39:18.724Z,6.17
2018-06-27T13:42:21.858Z,11.30
2018-06-27T13:45:25.005Z,6.10
2018-06-27T13:48:28.157Z,7.13
2018-06-27T13:51:31.268Z,5.23
2018-06-27T13:54:35.028Z,9.00
2018-06-27T13:57:43.944Z,6.83
2018-06-27T14:00:47.993Z,7.23
2018-06-27T14:03:51.218Z,9.17
2018-06-27T14:06:54.331Z,6.97
2018-06-27T14:09:57.538Z,10.23
2018-06-27T14:13:00.753Z,6.53
2018-06-27T14:16:03.948Z,4.63
2018-06-27T14:19:07.481Z,6.57
2018-06-27T14:22:10.631Z,9.57
2018-06-27T14:25:13.762Z,11.93
2018-06-27T14:28:16.923Z,8.47
2018-06-27T14:31:20.035Z,6.47
2018-06-27T14:34:23.989Z,10.77
2018-06-27T14:37:27.168Z,8.43
2018-06-27T14:40:30.407Z,7.53
2018-06-27T14:43:33.624Z,9.07
2018-06-27T14:46:36.943Z,6.63
2018-06-27T14:49:40.186Z,8.37
2018-06-27T14:52:43.398Z,10.30
2018-06-27T14:55:47.640Z,8.10
2018-06-27T14:58:51.030Z,9.67
2018-06-27T15:01:54.790Z,8.93
2018-06-27T15:04:58.576Z,9.60
2018-06-27T15:08:02.040Z,11.40
2018-06-27T15:11:04.944Z,9.40
2018-06-27T15:14:08.055Z,6.50
2018-06-27T15:17:10.954Z,10.03
2018-06-27T15:20:14.111Z,3.97
2018-06-27T15:23:17.228Z,7.47
2018-06-27T15:26:20.335Z,5.23
2018-06-27T15:29:23.447Z,7.20
2018-06-27T15:32:26.563Z,8.33
2018-06-27T15:35:29.700Z,4.70
2018-06-27T15:38:32.836Z,7.20
2018-06-27T15:41:35.975Z,7.17
2018-06-27T15:44:39.215Z,6.97
2018-06-27T15:47:42.332Z,7.27
2018-06-27T15:50:45.467Z,8.07
2018-06-27T15:53:48.592Z,6.63
2018-06-27T15:56:51.712Z,9.03
2018-06-27T15:59:56.093Z,4.40
2018-06-27T16:02:59.208Z,5.83
2018-06-27T16:06:02.368Z,5.73
2018-06-27T16:09:07.008Z,6.40
2018-06-27T16:12:09.916Z,5.00
2018-06-27T16:15:13.033Z,3.70
2018-06-27T16:18:16.187Z,3.67
2018-06-27T16:21:19.326Z,4.27
2018-06-27T16:24:22.480Z,5.67
2018-06-27T16:27:25.605Z,4.33
2018-06-27T16:30:28.745Z,4.60
2018-06-27T16:33:31.971Z,4.97
2018-06-27T16:36:35.096Z,4.23
2018-06-27T16:39:38.224Z,3.57
2018-06-27T16:42:41.528Z,3.40
2018-06-27T16:45:44.642Z,3.17
2018-06-27T16:48:47.777Z,2.90
2018-06-27T16:51:50.939Z,2.40
2018-06-27T16:54:54.094Z,3.47
2018-06-27T16:57:57.420Z,2.00
2018-06-27T17:01:00.609Z,3.30
2018-06-27T17:04:03.730Z,3.07
2018-06-27T17:07:07.029Z,3.60
2018-06-27T17:10:10.112Z,6.00
2018-06-27T17:13:13.506Z,2.80
2018-06-27T17:16:16.611Z,5.33
2018-06-27T17:19:20.122Z,2.57
2018-06-27T17:22:23.724Z,1.67
2018-06-27T17:25:26.864Z,2.63
2018-06-27T17:28:30.021Z,2.73
2018-06-27T17:31:33.251Z,3.67
2018-06-27T17:34:36.320Z,5.90
2018-06-27T17:37:39.560Z,2.50
2018-06-27T17:40:42.672Z,3.43
2018-06-27T17:43:46.124Z,4.47
2018-06-27T17:46:49.264Z,2.97
2018-06-27T17:49:52.377Z,3.00
2018-06-27T17:52:55.528Z,2.50
2018-06-27T17:55:58.693Z,2.90
2018-06-27T17:59:01.864Z,3.30
2018-06-27T18:02:05.075Z,2.77
2018-06-27T18:05:08.228Z,4.50
2018-06-27T18:08:11.380Z,1.40
2018-06-27T18:11:14.552Z,2.00
2018-06-27T18:14:17.716Z,2.53
2018-06-27T18:17:20.855Z,2.90
2018-06-27T18:20:24.007Z,1.13
2018-06-27T18:23:27.155Z,3.83
2018-06-27T18:26:30.308Z,2.60
2018-06-27T18:29:34.069Z,1.80
2018-06-27T18:32:37.211Z,1.33
2018-06-27T18:35:40.364Z,2.03
2018-06-27T18:38:43.608Z,2.03
2018-06-27T18:41:46.756Z,2.63
2018-06-27T18:44:49.967Z,2.50
2018-06-27T18:47:52.867Z,2.83
2018-06-27T18:50:56.031Z,4.13
2018-06-27T18:53:59.250Z,2.40
2018-06-27T18:57:02.426Z,1.80
2018-06-27T19:00:07.463Z,2.00
2018-06-27T19:03:10.655Z,2.63
2018-06-27T19:06:13.878Z,2.13
2018-06-27T19:09:17.022Z,1.67
2018-06-27T19:12:20.189Z,2.40
2018-06-27T19:15:23.368Z,2.97
2018-06-27T19:18:26.990Z,3.37
2018-06-27T19:21:30.136Z,3.97
2018-06-27T19:24:33.321Z,2.90
2018-06-27T19:27:36.479Z,2.50
2018-06-27T19:30:39.688Z,2.40
2018-06-27T19:33:42.895Z,4.30
2018-06-27T19:36:46.053Z,3.50
2018-06-27T19:39:49.207Z,3.83
2018-06-27T19:42:52.472Z,2.60
2018-06-27T19:45:55.634Z,1.90
2018-06-27T19:48:58.635Z,2.10
2018-06-27T19:52:01.836Z,8.47
2018-06-27T19:55:05.013Z,6.47
2018-06-27T19:58:08.192Z,2.57
2018-06-27T20:01:11.335Z,4.07
2018-06-27T20:04:14.851Z,2.77
2018-06-27T20:07:18.061Z,3.53
2018-06-27T20:10:21.102Z,5.53
2018-06-27T20:13:24.268Z,5.70
2018-06-27T20:16:27.423Z,5.03
2018-06-27T20:19:30.581Z,4.33
2018-06-27T20:22:33.772Z,5.47
2018-06-27T20:25:36.938Z,4.30
2018-06-27T20:28:40.091Z,9.10
2018-06-27T20:31:43.241Z,5.07
2018-06-27T20:34:46.408Z,9.93
2018-06-27T20:37:49.871Z,9.13
2018-06-27T20:40:53.027Z,7.63
2018-06-27T20:43:56.207Z,9.03
2018-06-27T20:46:59.368Z,8.20
2018-06-27T20:50:02.515Z,11.47
2018-06-27T20:53:05.674Z,8.50
2018-06-27T20:56:08.819Z,8.63
2018-06-27T20:59:11.988Z,11.10
2018-06-27T21:02:15.158Z,10.17
2018-06-27T21:05:18.324Z,12.53
2018-06-27T21:08:21.230Z,11.13
2018-06-27T21:11:24.459Z,9.87
2018-06-27T21:14:27.552Z,12.73
2018-06-27T21:17:30.680Z,10.43
2018-06-27T21:20:33.823Z,8.20
2018-06-27T21:23:36.948Z,9.07
2018-06-27T21:26:40.074Z,12.33
2018-06-27T21:29:43.208Z,16.73
2018-06-27T21:32:46.348Z,11.27
2018-06-27T21:35:49.684Z,14.00
2018-06-27T21:38:53.000Z,11.40
2018-06-27T21:41:56.132Z,10.57
2018-06-27T21:44:59.291Z,11.10
2018-06-27T21:48:02.660Z,9.60
2018-06-27T21:51:05.820Z,17.03
2018-06-27T21:54:08.952Z,15.73
2018-06-27T21:57:12.067Z,10.40
2018-06-27T22:00:16.251Z,17.93
2018-06-27T22:03:19.367Z,14.17
2018-06-27T22:06:22.519Z,12.13
2018-06-27T22:09:25.636Z,11.80
2018-06-27T22:12:28.743Z,14.50
2018-06-27T22:15:31.912Z,13.27
2018-06-27T22:18:35.085Z,15.73
2018-06-27T22:21:38.303Z,16.47
2018-06-27T22:24:41.404Z,19.20
2018-06-27T22:27:44.548Z,15.33
2018-06-27T22:30:47.794Z,15.87
2018-06-27T22:33:50.945Z,13.57
2018-06-27T22:36:54.122Z,9.87
2018-06-27T22:39:57.274Z,10.33
2018-06-27T22:43:00.492Z,13.67
2018-06-27T22:46:03.659Z,11.20
2018-06-27T22:49:06.808Z,13.80
2018-06-27T22:52:09.976Z,18.23
2018-06-27T22:55:13.138Z,16.80
2018-06-27T22:58:16.296Z,15.40
2018-06-27T23:01:19.443Z,19.07
2018-06-27T23:04:22.599Z,17.10
2018-06-27T23:07:25.748Z,17.07
2018-06-27T23:10:28.959Z,16.33
2018-06-27T23:13:32.379Z,21.87
2018-06-27T23:16:35.659Z,17.93
2018-06-27T23:19:38.772Z,13.93
2018-06-27T23:22:44.644Z,20.30
2018-06-27T23:25:47.763Z,22.27
2018-06-27T23:28:50.871Z,15.60
2018-06-27T23:31:54.008Z,18.20
2018-06-27T23:34:57.133Z,15.77
2018-06-27T23:38:00.263Z,18.53
2018-06-27T23:41:03.396Z,18.73
2018-06-27T23:44:06.513Z,20.00
2018-06-27T23:47:09.635Z,17.80
2018-06-27T23:50:12.772Z,15.70
2018-06-27T23:53:15.719Z,16.10
2018-06-27T23:56:18.840Z,19.13
2018-06-27T23:59:21.951Z,17.63
